Here is the Quick Look data you requested

The Data originates at the National Weather Service, and is made available here by the UAlbany Department of Atmospheric and Environmental Sciences

Surface Observations

KOKV 151755Z AUTO 24007KT 210V270 10SM SCT080 SCT090 35/17 A2991 RMK AO2=
KOKV 151815Z AUTO 22009KT 10SM BKN080 BKN100 35/17 A2990 RMK AO2=
KOKV 151835Z AUTO 20008KT 10SM SCT080 36/17 A2989 RMK AO2=
KOKV 151855Z AUTO 30008KT 10SM SCT090 BKN110 36/16 A2988 RMK AO2=
KOKV 151915Z AUTO 30008KT 10SM SCT090 SCT120 37/16 A2987 RMK AO2=
KOKV 151935Z AUTO 24006G16KT 10SM SCT090 SCT120 37/15 A2987 RMK AO2=
KOKV 151955Z AUTO 31011G15KT 10SM SCT090 37/15 A2986 RMK AO2=
KOKV 152015Z AUTO 15006G17KT 10SM SCT090 35/16 A2985 RMK AO2=
KOKV 152035Z AUTO 19016G21KT 10SM BKN090 BKN120 32/19 A2986 RMK AO2 LTG DSNT E
 AND SE=
KOKV 152055Z AUTO 17014G18KT 10SM SCT100 32/19 A2985 RMK AO2 LTG DSNT S=
KOKV 152115Z AUTO 16010G19KT 10SM CLR 32/20 A2984 RMK AO2 LTG DSNT SE=
KOKV 152135Z AUTO 16010KT 10SM SCT120 32/19 A2984 RMK AO2 LTG DSNT E=
KOKV 152155Z AUTO 17011KT 10SM SCT120 32/19 A2984 RMK AO2 LTG DSNT SE=
KOKV 152215Z AUTO 17009G16KT 10SM SCT110 31/18 A2984 RMK AO2=
KOKV 152235Z AUTO 17007KT 10SM SCT110 32/18 A2984 RMK AO2=
KOKV 152255Z AUTO 18008KT 10SM CLR 32/19 A2984 RMK AO2=
KOKV 152315Z AUTO 18008KT 10SM CLR 31/19 A2984 RMK AO2=
KOKV 152335Z AUTO 17008KT 10SM CLR 32/19 A2983 RMK AO2=
KOKV 152355Z AUTO 17009KT 10SM CLR 30/19 A2984 RMK AO2=
KOKV 160015Z AUTO 17007KT 10SM CLR 30/19 A2984 RMK AO2=
KOKV 160035Z AUTO 17006KT 10SM CLR 28/19 A2985 RMK AO2=
KOKV 160055Z AUTO 18004KT 10SM CLR 28/19 A2986 RMK AO2=
KOKV 160115Z AUTO 17004KT 10SM CLR 28/19 A2986 RMK AO2=
KOKV 160135Z AUTO 19004KT 10SM CLR 27/18 A2986 RMK AO2=
KOKV 160155Z AUTO 20004KT 10SM CLR 27/18 A2987 RMK AO2=
KOKV 160215Z AUTO 00000KT 10SM CLR 27/18 A2987 RMK AO2=
KOKV 160235Z AUTO 00000KT 10SM CLR 27/18 A2986 RMK AO2=
KOKV 160255Z AUTO 00000KT 10SM CLR 25/18 A2986 RMK AO2=
KOKV 160315Z AUTO 00000KT 10SM CLR 24/18 A2985 RMK AO2=
KOKV 160335Z AUTO 00000KT 10SM CLR 23/18 A2985 RMK AO2=
KOKV 160355Z AUTO 00000KT 10SM CLR 23/18 A2985 RMK AO2=
KOKV 160415Z AUTO 25004KT 10SM CLR 25/19 A2985 RMK AO2=
KOKV 160435Z AUTO 26003KT 10SM CLR 25/18 A2985 RMK AO2=
KOKV 160455Z AUTO 00000KT 10SM CLR 24/18 A2985 RMK AO2=
KOKV 160515Z AUTO 26004KT 10SM CLR 25/18 A2985 RMK AO2=
KOKV 160535Z AUTO 27004KT 10SM CLR 26/18 A2985 RMK AO2=
KOKV 160555Z AUTO 00000KT 10SM CLR 23/18 A2985 RMK AO2=
KOKV 160615Z AUTO 00000KT 10SM CLR 23/18 A2985 RMK AO2=
KOKV 160635Z AUTO 00000KT 10SM CLR 22/18 A2985 RMK AO2=
KOKV 160655Z AUTO 00000KT 10SM CLR 22/18 A2985 RMK AO2=
KOKV 160715Z AUTO 16003KT 10SM CLR 21/18 A2986 RMK AO2=
KOKV 160735Z AUTO 00000KT 10SM CLR 22/18 A2986 RMK AO2=
KOKV 160755Z AUTO 21003KT 10SM CLR 24/17 A2986 RMK AO2=
KOKV 160815Z AUTO 23003KT 10SM CLR 24/17 A2986 RMK AO2 LTG DSNT W=
KOKV 160835Z AUTO 00000KT 10SM CLR 23/17 A2986 RMK AO2=
KOKV 160855Z AUTO 00000KT 10SM CLR 24/17 A2985 RMK AO2=
KOKV 160915Z AUTO 20003KT 10SM CLR 23/17 A2985 RMK AO2=
KOKV 160935Z AUTO 24003KT 10SM CLR 23/17 A2986 RMK AO2=
KOKV 160955Z AUTO 25004KT 10SM CLR 25/16 A2986 RMK AO2=
KOKV 161015Z AUTO 25005KT 10SM CLR 25/16 A2987 RMK AO2=
KOKV 161035Z AUTO 22004KT 10SM CLR 25/16 A2987 RMK AO2=
KOKV 161055Z AUTO 20005KT 10SM CLR 25/16 A2988 RMK AO2=
KOKV 161115Z AUTO 22004KT 10SM CLR 25/17 A2989 RMK AO2=
KOKV 161135Z AUTO 22005KT 10SM CLR 26/17 A2988 RMK AO2=
KOKV 161155Z AUTO 21006KT 10SM CLR 27/17 A2989 RMK AO2=
KOKV 161215Z AUTO 21006KT 10SM CLR 27/17 A2989 RMK AO2=
KOKV 161235Z AUTO 22004KT 10SM CLR 28/17 A2988 RMK AO2=
KOKV 161255Z AUTO 18004KT 10SM CLR 29/18 A2987 RMK AO2=
KOKV 161315Z AUTO 22007KT 10SM CLR 30/18 A2988 RMK AO2=
KOKV 161335Z AUTO 21005KT 10SM CLR 31/19 A2988 RMK AO2=
KOKV 161355Z AUTO CLR 31/19 RMK AO2 PWINO PNO=
KOKV 161415Z AUTO CLR 32/19 A2986 RMK AO2 PNO=
KOKV 161435Z AUTO 32/19 RMK AO2 PWINO PNO TSNO=
KOKV 161515Z AUTO 34/18 RMK AO2 PWINO PNO TSNO=
KOKV 161535Z AUTO 34/18 RMK AO2 PNO TSNO=
KOKV 161555Z AUTO 35/18 RMK AO2 PWINO PNO TSNO=
KOKV 161615Z AUTO 22009KT 36/18 A2985 RMK AO2 PWINO PNO=
KOKV 161635Z AUTO 36/18 RMK AO2 PWINO PNO=
KOKV 161655Z AUTO 36/17 RMK AO2 PWINO PNO TSNO=
KOKV 161715Z AUTO 36/17 RMK AO2 PWINO PNO=

Decoded Surface Observations


The weather observed at WINCHESTER RGNL, VA (KOKV) at 01:55 PM EDT was:
  The skies were partly cloudy.
  Temperature: 95F ( 35C)  Dewpoint:  63F ( 17C)  Relative Humidity:  34%
  Winds from the SW (240 degs) at  8 mph.
  Altimeter:29.91 inches of mercury.
  The prevailing visibility was 10 miles.

The weather observed at WINCHESTER RGNL, VA (KOKV) at 02:15 PM EDT was:
  The skies were mostly cloudy.
  Temperature: 95F ( 35C)  Dewpoint:  63F ( 17C)  Relative Humidity:  34%
  Winds from the SW (220 degs) at 10 mph.
  Altimeter:29.90 inches of mercury.
  The prevailing visibility was 10 miles.

The weather observed at WINCHESTER RGNL, VA (KOKV) at 02:35 PM EDT was:
  The skies were partly cloudy.
  Temperature: 97F ( 36C)  Dewpoint:  63F ( 17C)  Relative Humidity:  33%
  Winds from the SSW(200 degs) at  9 mph.
  Altimeter:29.89 inches of mercury.
  The prevailing visibility was 10 miles.

The weather observed at WINCHESTER RGNL, VA (KOKV) at 02:55 PM EDT was:
  The skies were mostly cloudy.
  Temperature: 97F ( 36C)  Dewpoint:  61F ( 16C)  Relative Humidity:  31%
  Winds from the NW (300 degs) at  9 mph.
  Altimeter:29.88 inches of mercury.
  The prevailing visibility was 10 miles.

The weather observed at WINCHESTER RGNL, VA (KOKV) at 03:15 PM EDT was:
  The skies were partly cloudy.
  Temperature: 99F ( 37C)  Dewpoint:  61F ( 16C)  Relative Humidity:  29%
  Winds from the NW (300 degs) at  9 mph.
  Altimeter:29.87 inches of mercury.
  The prevailing visibility was 10 miles.

The weather observed at WINCHESTER RGNL, VA (KOKV) at 03:35 PM EDT was:
  The skies were partly cloudy.
  Temperature: 99F ( 37C)  Dewpoint:  59F ( 15C)  Relative Humidity:  27%
  Winds from the SW (240 degs) at  7 mph.
  Altimeter:29.87 inches of mercury.
  The prevailing visibility was 10 miles.

The weather observed at WINCHESTER RGNL, VA (KOKV) at 03:55 PM EDT was:
  The skies were partly cloudy.
  Temperature: 99F ( 37C)  Dewpoint:  59F ( 15C)  Relative Humidity:  27%
  Winds from the NW (310 degs) at 13 mph.
  Altimeter:29.86 inches of mercury.
  The prevailing visibility was 10 miles.

The weather observed at WINCHESTER RGNL, VA (KOKV) at 04:15 PM EDT was:
  The skies were partly cloudy.
  Temperature: 95F ( 35C)  Dewpoint:  61F ( 16C)  Relative Humidity:  32%
  Winds from the SE (150 degs) at  7 mph.
  Altimeter:29.85 inches of mercury.
  The prevailing visibility was 10 miles.

The weather observed at WINCHESTER RGNL, VA (KOKV) at 04:35 PM EDT was:
  The skies were mostly cloudy.
  Temperature: 90F ( 32C)  Dewpoint:  66F ( 19C)  Relative Humidity:  46%
  Winds from the S  (190 degs) at 18 mph.
  Altimeter:29.86 inches of mercury.
  The prevailing visibility was 10 miles.

The weather observed at WINCHESTER RGNL, VA (KOKV) at 04:55 PM EDT was:
  The skies were partly cloudy.
  Temperature: 90F ( 32C)  Dewpoint:  66F ( 19C)  Relative Humidity:  46%
  Winds from the S  (170 degs) at 16 mph.
  Altimeter:29.85 inches of mercury.
  The prevailing visibility was 10 miles.

The weather observed at WINCHESTER RGNL, VA (KOKV) at 05:15 PM EDT was:
  The skies were clear.
  Temperature: 90F ( 32C)  Dewpoint:  68F ( 20C)  Relative Humidity:  49%
  Winds from the SSE(160 degs) at 12 mph.
  Altimeter:29.84 inches of mercury.
  The prevailing visibility was 10 miles.

The weather observed at WINCHESTER RGNL, VA (KOKV) at 05:35 PM EDT was:
  The skies were partly cloudy.
  Temperature: 90F ( 32C)  Dewpoint:  66F ( 19C)  Relative Humidity:  46%
  Winds from the SSE(160 degs) at 12 mph.
  Altimeter:29.84 inches of mercury.
  The prevailing visibility was 10 miles.

The weather observed at WINCHESTER RGNL, VA (KOKV) at 05:55 PM EDT was:
  The skies were partly cloudy.
  Temperature: 90F ( 32C)  Dewpoint:  66F ( 19C)  Relative Humidity:  46%
  Winds from the S  (170 degs) at 13 mph.
  Altimeter:29.84 inches of mercury.
  The prevailing visibility was 10 miles.

The weather observed at WINCHESTER RGNL, VA (KOKV) at 06:15 PM EDT was:
  The skies were partly cloudy.
  Temperature: 88F ( 31C)  Dewpoint:  64F ( 18C)  Relative Humidity:  46%
  Winds from the S  (170 degs) at 10 mph.
  Altimeter:29.84 inches of mercury.
  The prevailing visibility was 10 miles.

The weather observed at WINCHESTER RGNL, VA (KOKV) at 06:35 PM EDT was:
  The skies were partly cloudy.
  Temperature: 90F ( 32C)  Dewpoint:  64F ( 18C)  Relative Humidity:  43%
  Winds from the S  (170 degs) at  8 mph.
  Altimeter:29.84 inches of mercury.
  The prevailing visibility was 10 miles.

The weather observed at WINCHESTER RGNL, VA (KOKV) at 06:55 PM EDT was:
  The skies were clear.
  Temperature: 90F ( 32C)  Dewpoint:  66F ( 19C)  Relative Humidity:  46%
  Winds from the S  (180 degs) at  9 mph.
  Altimeter:29.84 inches of mercury.
  The prevailing visibility was 10 miles.

The weather observed at WINCHESTER RGNL, VA (KOKV) at 07:15 PM EDT was:
  The skies were clear.
  Temperature: 88F ( 31C)  Dewpoint:  66F ( 19C)  Relative Humidity:  49%
  Winds from the S  (180 degs) at  9 mph.
  Altimeter:29.84 inches of mercury.
  The prevailing visibility was 10 miles.

The weather observed at WINCHESTER RGNL, VA (KOKV) at 07:35 PM EDT was:
  The skies were clear.
  Temperature: 90F ( 32C)  Dewpoint:  66F ( 19C)  Relative Humidity:  46%
  Winds from the S  (170 degs) at  9 mph.
  Altimeter:29.83 inches of mercury.
  The prevailing visibility was 10 miles.

The weather observed at WINCHESTER RGNL, VA (KOKV) at 07:55 PM EDT was:
  The skies were clear.
  Temperature: 86F ( 30C)  Dewpoint:  66F ( 19C)  Relative Humidity:  52%
  Winds from the S  (170 degs) at 10 mph.
  Altimeter:29.84 inches of mercury.
  The prevailing visibility was 10 miles.

The weather observed at WINCHESTER RGNL, VA (KOKV) at 08:15 PM EDT was:
  The skies were clear.
  Temperature: 86F ( 30C)  Dewpoint:  66F ( 19C)  Relative Humidity:  52%
  Winds from the S  (170 degs) at  8 mph.
  Altimeter:29.84 inches of mercury.
  The prevailing visibility was 10 miles.

The weather observed at WINCHESTER RGNL, VA (KOKV) at 08:35 PM EDT was:
  The skies were clear.
  Temperature: 82F ( 28C)  Dewpoint:  66F ( 19C)  Relative Humidity:  58%
  Winds from the S  (170 degs) at  7 mph.
  Altimeter:29.85 inches of mercury.
  The prevailing visibility was 10 miles.

The weather observed at WINCHESTER RGNL, VA (KOKV) at 08:55 PM EDT was:
  The skies were clear.
  Temperature: 82F ( 28C)  Dewpoint:  66F ( 19C)  Relative Humidity:  58%
  Winds from the S  (180 degs) at  5 mph.
  Altimeter:29.86 inches of mercury.
  The prevailing visibility was 10 miles.

The weather observed at WINCHESTER RGNL, VA (KOKV) at 09:15 PM EDT was:
  The skies were clear.
  Temperature: 82F ( 28C)  Dewpoint:  66F ( 19C)  Relative Humidity:  58%
  Winds from the S  (170 degs) at  5 mph.
  Altimeter:29.86 inches of mercury.
  The prevailing visibility was 10 miles.

The weather observed at WINCHESTER RGNL, VA (KOKV) at 09:35 PM EDT was:
  The skies were clear.
  Temperature: 81F ( 27C)  Dewpoint:  64F ( 18C)  Relative Humidity:  58%
  Winds from the S  (190 degs) at  5 mph.
  Altimeter:29.86 inches of mercury.
  The prevailing visibility was 10 miles.

The weather observed at WINCHESTER RGNL, VA (KOKV) at 09:55 PM EDT was:
  The skies were clear.
  Temperature: 81F ( 27C)  Dewpoint:  64F ( 18C)  Relative Humidity:  58%
  Winds from the SSW(200 degs) at  5 mph.
  Altimeter:29.87 inches of mercury.
  The prevailing visibility was 10 miles.

The weather observed at WINCHESTER RGNL, VA (KOKV) at 10:15 PM EDT was:
  The skies were clear.
  Temperature: 81F ( 27C)  Dewpoint:  64F ( 18C)  Relative Humidity:  58%
  Winds from the CLM(CLM degs) at  0 mph.
  Altimeter:29.87 inches of mercury.
  The prevailing visibility was 10 miles.

The weather observed at WINCHESTER RGNL, VA (KOKV) at 10:35 PM EDT was:
  The skies were clear.
  Temperature: 81F ( 27C)  Dewpoint:  64F ( 18C)  Relative Humidity:  58%
  Winds from the CLM(CLM degs) at  0 mph.
  Altimeter:29.86 inches of mercury.
  The prevailing visibility was 10 miles.

The weather observed at WINCHESTER RGNL, VA (KOKV) at 10:55 PM EDT was:
  The skies were clear.
  Temperature: 77F ( 25C)  Dewpoint:  64F ( 18C)  Relative Humidity:  65%
  Winds from the CLM(CLM degs) at  0 mph.
  Altimeter:29.86 inches of mercury.
  The prevailing visibility was 10 miles.

The weather observed at WINCHESTER RGNL, VA (KOKV) at 11:15 PM EDT was:
  The skies were clear.
  Temperature: 75F ( 24C)  Dewpoint:  64F ( 18C)  Relative Humidity:  69%
  Winds from the CLM(CLM degs) at  0 mph.
  Altimeter:29.85 inches of mercury.
  The prevailing visibility was 10 miles.

The weather observed at WINCHESTER RGNL, VA (KOKV) at 11:35 PM EDT was:
  The skies were clear.
  Temperature: 73F ( 23C)  Dewpoint:  64F ( 18C)  Relative Humidity:  73%
  Winds from the CLM(CLM degs) at  0 mph.
  Altimeter:29.85 inches of mercury.
  The prevailing visibility was 10 miles.

The weather observed at WINCHESTER RGNL, VA (KOKV) at 11:55 PM EDT was:
  The skies were clear.
  Temperature: 73F ( 23C)  Dewpoint:  64F ( 18C)  Relative Humidity:  73%
  Winds from the CLM(CLM degs) at  0 mph.
  Altimeter:29.85 inches of mercury.
  The prevailing visibility was 10 miles.

The weather observed at WINCHESTER RGNL, VA (KOKV) at 12:15 AM EDT was:
  The skies were clear.
  Temperature: 77F ( 25C)  Dewpoint:  66F ( 19C)  Relative Humidity:  69%
  Winds from the WSW(250 degs) at  5 mph.
  Altimeter:29.85 inches of mercury.
  The prevailing visibility was 10 miles.

The weather observed at WINCHESTER RGNL, VA (KOKV) at 12:35 AM EDT was:
  The skies were clear.
  Temperature: 77F ( 25C)  Dewpoint:  64F ( 18C)  Relative Humidity:  65%
  Winds from the W  (260 degs) at  3 mph.
  Altimeter:29.85 inches of mercury.
  The prevailing visibility was 10 miles.

The weather observed at WINCHESTER RGNL, VA (KOKV) at 12:55 AM EDT was:
  The skies were clear.
  Temperature: 75F ( 24C)  Dewpoint:  64F ( 18C)  Relative Humidity:  69%
  Winds from the CLM(CLM degs) at  0 mph.
  Altimeter:29.85 inches of mercury.
  The prevailing visibility was 10 miles.

The weather observed at WINCHESTER RGNL, VA (KOKV) at 01:15 AM EDT was:
  The skies were clear.
  Temperature: 77F ( 25C)  Dewpoint:  64F ( 18C)  Relative Humidity:  65%
  Winds from the W  (260 degs) at  5 mph.
  Altimeter:29.85 inches of mercury.
  The prevailing visibility was 10 miles.

The weather observed at WINCHESTER RGNL, VA (KOKV) at 01:35 AM EDT was:
  The skies were clear.
  Temperature: 79F ( 26C)  Dewpoint:  64F ( 18C)  Relative Humidity:  61%
  Winds from the W  (270 degs) at  5 mph.
  Altimeter:29.85 inches of mercury.
  The prevailing visibility was 10 miles.

The weather observed at WINCHESTER RGNL, VA (KOKV) at 01:55 AM EDT was:
  The skies were clear.
  Temperature: 73F ( 23C)  Dewpoint:  64F ( 18C)  Relative Humidity:  73%
  Winds from the CLM(CLM degs) at  0 mph.
  Altimeter:29.85 inches of mercury.
  The prevailing visibility was 10 miles.

The weather observed at WINCHESTER RGNL, VA (KOKV) at 02:15 AM EDT was:
  The skies were clear.
  Temperature: 73F ( 23C)  Dewpoint:  64F ( 18C)  Relative Humidity:  73%
  Winds from the CLM(CLM degs) at  0 mph.
  Altimeter:29.85 inches of mercury.
  The prevailing visibility was 10 miles.

The weather observed at WINCHESTER RGNL, VA (KOKV) at 02:35 AM EDT was:
  The skies were clear.
  Temperature: 72F ( 22C)  Dewpoint:  64F ( 18C)  Relative Humidity:  78%
  Winds from the CLM(CLM degs) at  0 mph.
  Altimeter:29.85 inches of mercury.
  The prevailing visibility was 10 miles.

The weather observed at WINCHESTER RGNL, VA (KOKV) at 02:55 AM EDT was:
  The skies were clear.
  Temperature: 72F ( 22C)  Dewpoint:  64F ( 18C)  Relative Humidity:  78%
  Winds from the CLM(CLM degs) at  0 mph.
  Altimeter:29.85 inches of mercury.
  The prevailing visibility was 10 miles.

The weather observed at WINCHESTER RGNL, VA (KOKV) at 03:15 AM EDT was:
  The skies were clear.
  Temperature: 70F ( 21C)  Dewpoint:  64F ( 18C)  Relative Humidity:  83%
  Winds from the SSE(160 degs) at  3 mph.
  Altimeter:29.86 inches of mercury.
  The prevailing visibility was 10 miles.

The weather observed at WINCHESTER RGNL, VA (KOKV) at 03:35 AM EDT was:
  The skies were clear.
  Temperature: 72F ( 22C)  Dewpoint:  64F ( 18C)  Relative Humidity:  78%
  Winds from the CLM(CLM degs) at  0 mph.
  Altimeter:29.86 inches of mercury.
  The prevailing visibility was 10 miles.

The weather observed at WINCHESTER RGNL, VA (KOKV) at 03:55 AM EDT was:
  The skies were clear.
  Temperature: 75F ( 24C)  Dewpoint:  63F ( 17C)  Relative Humidity:  65%
  Winds from the SW (210 degs) at  3 mph.
  Altimeter:29.86 inches of mercury.
  The prevailing visibility was 10 miles.

The weather observed at WINCHESTER RGNL, VA (KOKV) at 04:15 AM EDT was:
  The skies were clear.
  Temperature: 75F ( 24C)  Dewpoint:  63F ( 17C)  Relative Humidity:  65%
  Winds from the SW (230 degs) at  3 mph.
  Altimeter:29.86 inches of mercury.
  The prevailing visibility was 10 miles.

The weather observed at WINCHESTER RGNL, VA (KOKV) at 04:35 AM EDT was:
  The skies were clear.
  Temperature: 73F ( 23C)  Dewpoint:  63F ( 17C)  Relative Humidity:  69%
  Winds from the CLM(CLM degs) at  0 mph.
  Altimeter:29.86 inches of mercury.
  The prevailing visibility was 10 miles.

The weather observed at WINCHESTER RGNL, VA (KOKV) at 04:55 AM EDT was:
  The skies were clear.
  Temperature: 75F ( 24C)  Dewpoint:  63F ( 17C)  Relative Humidity:  65%
  Winds from the CLM(CLM degs) at  0 mph.
  Altimeter:29.85 inches of mercury.
  The prevailing visibility was 10 miles.

The weather observed at WINCHESTER RGNL, VA (KOKV) at 05:15 AM EDT was:
  The skies were clear.
  Temperature: 73F ( 23C)  Dewpoint:  63F ( 17C)  Relative Humidity:  69%
  Winds from the SSW(200 degs) at  3 mph.
  Altimeter:29.85 inches of mercury.
  The prevailing visibility was 10 miles.

The weather observed at WINCHESTER RGNL, VA (KOKV) at 05:35 AM EDT was:
  The skies were clear.
  Temperature: 73F ( 23C)  Dewpoint:  63F ( 17C)  Relative Humidity:  69%
  Winds from the SW (240 degs) at  3 mph.
  Altimeter:29.86 inches of mercury.
  The prevailing visibility was 10 miles.

The weather observed at WINCHESTER RGNL, VA (KOKV) at 05:55 AM EDT was:
  The skies were clear.
  Temperature: 77F ( 25C)  Dewpoint:  61F ( 16C)  Relative Humidity:  57%
  Winds from the WSW(250 degs) at  5 mph.
  Altimeter:29.86 inches of mercury.
  The prevailing visibility was 10 miles.

The weather observed at WINCHESTER RGNL, VA (KOKV) at 06:15 AM EDT was:
  The skies were clear.
  Temperature: 77F ( 25C)  Dewpoint:  61F ( 16C)  Relative Humidity:  57%
  Winds from the WSW(250 degs) at  6 mph.
  Altimeter:29.87 inches of mercury.
  The prevailing visibility was 10 miles.

The weather observed at WINCHESTER RGNL, VA (KOKV) at 06:35 AM EDT was:
  The skies were clear.
  Temperature: 77F ( 25C)  Dewpoint:  61F ( 16C)  Relative Humidity:  57%
  Winds from the SW (220 degs) at  5 mph.
  Altimeter:29.87 inches of mercury.
  The prevailing visibility was 10 miles.

The weather observed at WINCHESTER RGNL, VA (KOKV) at 06:55 AM EDT was:
  The skies were clear.
  Temperature: 77F ( 25C)  Dewpoint:  61F ( 16C)  Relative Humidity:  57%
  Winds from the SSW(200 degs) at  6 mph.
  Altimeter:29.88 inches of mercury.
  The prevailing visibility was 10 miles.

The weather observed at WINCHESTER RGNL, VA (KOKV) at 07:15 AM EDT was:
  The skies were clear.
  Temperature: 77F ( 25C)  Dewpoint:  63F ( 17C)  Relative Humidity:  61%
  Winds from the SW (220 degs) at  5 mph.
  Altimeter:29.89 inches of mercury.
  The prevailing visibility was 10 miles.

The weather observed at WINCHESTER RGNL, VA (KOKV) at 07:35 AM EDT was:
  The skies were clear.
  Temperature: 79F ( 26C)  Dewpoint:  63F ( 17C)  Relative Humidity:  58%
  Winds from the SW (220 degs) at  6 mph.
  Altimeter:29.88 inches of mercury.
  The prevailing visibility was 10 miles.

The weather observed at WINCHESTER RGNL, VA (KOKV) at 07:55 AM EDT was:
  The skies were clear.
  Temperature: 81F ( 27C)  Dewpoint:  63F ( 17C)  Relative Humidity:  54%
  Winds from the SW (210 degs) at  7 mph.
  Altimeter:29.89 inches of mercury.
  The prevailing visibility was 10 miles.

The weather observed at WINCHESTER RGNL, VA (KOKV) at 08:15 AM EDT was:
  The skies were clear.
  Temperature: 81F ( 27C)  Dewpoint:  63F ( 17C)  Relative Humidity:  54%
  Winds from the SW (210 degs) at  7 mph.
  Altimeter:29.89 inches of mercury.
  The prevailing visibility was 10 miles.

The weather observed at WINCHESTER RGNL, VA (KOKV) at 08:35 AM EDT was:
  The skies were clear.
  Temperature: 82F ( 28C)  Dewpoint:  63F ( 17C)  Relative Humidity:  51%
  Winds from the SW (220 degs) at  5 mph.
  Altimeter:29.88 inches of mercury.
  The prevailing visibility was 10 miles.

The weather observed at WINCHESTER RGNL, VA (KOKV) at 08:55 AM EDT was:
  The skies were clear.
  Temperature: 84F ( 29C)  Dewpoint:  64F ( 18C)  Relative Humidity:  51%
  Winds from the S  (180 degs) at  5 mph.
  Altimeter:29.87 inches of mercury.
  The prevailing visibility was 10 miles.

The weather observed at WINCHESTER RGNL, VA (KOKV) at 09:15 AM EDT was:
  The skies were clear.
  Temperature: 86F ( 30C)  Dewpoint:  64F ( 18C)  Relative Humidity:  49%
  Winds from the SW (220 degs) at  8 mph.
  Altimeter:29.88 inches of mercury.
  The prevailing visibility was 10 miles.

The weather observed at WINCHESTER RGNL, VA (KOKV) at 09:35 AM EDT was:
  The skies were clear.
  Temperature: 88F ( 31C)  Dewpoint:  66F ( 19C)  Relative Humidity:  49%
  Winds from the SW (210 degs) at  6 mph.
  Altimeter:29.88 inches of mercury.
  The prevailing visibility was 10 miles.

The weather observed at WINCHESTER RGNL, VA (KOKV) at 09:55 AM EDT was:
  The skies were clear.
  Temperature: 88F ( 31C)  Dewpoint:  66F ( 19C)  Relative Humidity:  49%
  Winds were not reported.

The weather observed at WINCHESTER RGNL, VA (KOKV) at 10:15 AM EDT was:
  The skies were clear.
  Temperature: 90F ( 32C)  Dewpoint:  66F ( 19C)  Relative Humidity:  46%
  Winds were not reported.
  Altimeter:29.86 inches of mercury.

The weather observed at WINCHESTER RGNL, VA (KOKV) at 10:35 AM EDT was:
  The skies were unobserved.
  Temperature: 90F ( 32C)  Dewpoint:  66F ( 19C)  Relative Humidity:  46%
  Winds were not reported.

The weather observed at WINCHESTER RGNL, VA (KOKV) at 11:15 AM EDT was:
  The skies were unobserved.
  Temperature: 93F ( 34C)  Dewpoint:  64F ( 18C)  Relative Humidity:  39%
  Winds were not reported.

The weather observed at WINCHESTER RGNL, VA (KOKV) at 11:35 AM EDT was:
  The skies were unobserved.
  Temperature: 93F ( 34C)  Dewpoint:  64F ( 18C)  Relative Humidity:  39%
  Winds were not reported.

The weather observed at WINCHESTER RGNL, VA (KOKV) at 11:55 AM EDT was:
  The skies were unobserved.
  Temperature: 95F ( 35C)  Dewpoint:  64F ( 18C)  Relative Humidity:  37%
  Winds were not reported.

The weather observed at WINCHESTER RGNL, VA (KOKV) at 12:15 PM EDT was:
  The skies were unobserved.
  Temperature: 97F ( 36C)  Dewpoint:  64F ( 18C)  Relative Humidity:  35%
  Winds from the SW (220 degs) at 10 mph.
  Altimeter:29.85 inches of mercury.

The weather observed at WINCHESTER RGNL, VA (KOKV) at 12:35 PM EDT was:
  The skies were unobserved.
  Temperature: 97F ( 36C)  Dewpoint:  64F ( 18C)  Relative Humidity:  35%
  Winds were not reported.

The weather observed at WINCHESTER RGNL, VA (KOKV) at 12:55 PM EDT was:
  The skies were unobserved.
  Temperature: 97F ( 36C)  Dewpoint:  63F ( 17C)  Relative Humidity:  33%
  Winds were not reported.

The weather observed at WINCHESTER RGNL, VA (KOKV) at 01:15 PM EDT was:
  The skies were unobserved.
  Temperature: 97F ( 36C)  Dewpoint:  63F ( 17C)  Relative Humidity:  33%
  Winds were not reported.

Short Range Forecast

Sorry no data found for okv
Make sure okv is a valid station
You might need to specify a nearby major city
Try Again

Zone Forecast

VAZ028-162100-
Frederick VA-
Including the city of Winchester
133 PM EDT Tue Jul 16 2024

...EXCESSIVE HEAT WARNING IN EFFECT UNTIL 8 PM EDT THIS EVENING...
...HEAT ADVISORY IN EFFECT FROM 11 AM TO 8 PM EDT WEDNESDAY...

.THIS AFTERNOON...Mostly sunny with scattered showers and
thunderstorms. Hot with highs around 99. Southwest winds around
10 mph with gusts up to 20 mph. Chance of rain 40 percent.
.TONIGHT...Mostly cloudy with scattered showers and thunderstorms
in the evening, then partly cloudy after midnight. Lows in the
lower 70s. Southwest winds 5 to 10 mph. Chance of rain
40 percent.
.WEDNESDAY...Mostly sunny. Isolated showers and thunderstorms in
the morning, then numerous showers and scattered thunderstorms in
the afternoon. Highs in the lower 90s. West winds 5 to 10 mph.
Chance of rain 70 percent.
.WEDNESDAY NIGHT...Numerous showers and thunderstorms in the
evening, then numerous showers and scattered thunderstorms after
midnight. Lows around 70. West winds 5 to 10 mph. Chance of rain
70 percent.
.THURSDAY...Partly sunny with scattered showers. Highs in the mid
80s. Northwest winds 5 to 10 mph. Chance of rain 40 percent.
.THURSDAY NIGHT...Partly cloudy. Lows in the lower 60s.
.FRIDAY...Mostly sunny. Highs in the mid 80s.
.FRIDAY NIGHT...Partly cloudy. Lows in the mid 60s.
.SATURDAY...Partly sunny with a chance of showers and
thunderstorms. Highs in the mid 80s. Chance of rain 40 percent.
.SATURDAY NIGHT...Partly cloudy. Lows in the mid 60s.
.SUNDAY...Mostly sunny. Highs in the upper 80s.
.SUNDAY NIGHT...Mostly cloudy. Lows in the mid 60s.
.MONDAY...Partly sunny with a chance of showers and
thunderstorms. Highs in the upper 80s. Chance of rain 50 percent.


State Forecast

Sorry no data found for okv
Make sure okv is a valid station
You might need to specify a nearby major city
Try Again

State Forecast Discussion

Sorry no data found for okv
Make sure okv is a valid station
You might need to specify a nearby major city
Try Again

GFS Short-Range Model Output Statistics (MOS) Forecast

KOKV   GFS MOS GUIDANCE    7/16/2024  1200 UTC
DT /JULY 16/JULY 17                /JULY 18                /JULY 19
HR   18 21 00 03 06 09 12 15 18 21 00 03 06 09 12 15 18 21 00 06 12
N/X                    72          90          66          84    60
TMP  93 93 86 78 76 73 77 85 88 86 78 71 68 67 69 77 81 83 77 65 66
DPT  65 66 68 69 68 67 68 69 67 67 69 68 67 65 65 63 61 60 59 58 57
CLD  SC BK OV OV BK BK FW BK OV OV OV OV OV OV BK BK BK BK BK BK CL
WDR  24 27 28 28 22 24 22 23 25 26 28 29 30 29 31 32 30 28 30 32 33
WSP  13 11 04 05 02 02 03 07 09 09 04 02 03 02 03 06 07 06 03 03 03
P06        16    23     7    10    68    47     9    10     7  9  9
P12                    31          80          49          18     9
Q06         0     0     0     0     4     1     0     0     0  0  0
Q12                     0           4           1           0     0
T06     36/24 21/ 5  3/ 1  6/ 8 45/24 18/ 4  1/ 1  4/ 5  9/10  1/ 0
T12           46/24        9/ 9       45/25        5/ 5    10/15
CIG   8  8  8  8  8  8  8  8  7  7  5  5  6  7  7  6  7  8  8  8  8
VIS   7  7  7  7  7  7  7  7  7  7  5  6  5  5  7  7  7  7  7  7  7
OBV   N  N  N  N  N  N  N  N  N  N  N BR BR BR  N  N  N  N  N  N  N

GFS Long-Range Model Output Statistics (MOS) Forecast

KOKV   GFSX MOS GUIDANCE   7/16/2024  1200 UTC
FHR  24  36| 48  60| 72  84| 96 108|120 132|144 156|168 180|192
     WED 17| THU 18| FRI 19| SAT 20| SUN 21| MON 22| TUE 23|WED CLIMO
N/X  72  90| 66  84| 60  83| 64  85| 65  86| 65  89| 67  84| 66 62 87
TMP  77  78| 69  77| 66  77| 69  77| 70  78| 71  80| 71  78| 71
DPT  68  69| 65  59| 57  59| 63  64| 65  64| 65  65| 66  66| 66
CLD  PC  OV| OV  PC| PC  CL| PC  PC| OV  OV| PC  OV| OV  OV| OV
WND   5   9|  4   7|  3   4|  3   5|  2   5|  3   6|  3   5|  4
P12  31  80| 49  18|  9   4| 10  17| 17  21| 15  18| 24  32| 30999999
P24      89|     52|      9|     20|     34|     27|     49|      999
Q12   0   4|  1   0|  0   0|  0   0|  0   0|  0   0|       |
Q24       3|      1|      0|      0|      0|      0|       |
T12  21  45| 18  11|  4  11|  4  19| 11  23| 11  24| 16  29| 12
T24        | 45    | 11    | 11    | 19    | 23    | 32    | 29

NGM Model Output Statistics (MOS) Forecast

Climatological Summary

Sorry no data found for okv
Make sure okv is a valid station
You might need to specify a nearby major city
Try Again

Watch and Warning Statment

Sorry no data found for okv
Make sure okv is a valid station
You might need to specify a nearby major city
or it could be THERE ARE NO WATCHES OR WARNINGS for okv
Try Again

Park/Ski Recreation Report/Forecast

Sorry no data found for okv
Make sure okv is a valid station
You might need to specify a nearby major city
Try Again